sensor_id;sensor_type;location;lat;lon;timestamp;pressure;altitude;pressure_sealevel;temperature;humidity
69593;BME280;56796;50.122;14.468;2022-12-29T00:15:21;976.82;;;5.92;79.28
69593;BME280;56796;50.122;14.468;2022-12-29T00:34:48;976.8;;;5.88;79.13
69593;BME280;56796;50.122;14.468;2022-12-29T00:54:16;976.65;;;6.14;77.26
69593;BME280;56796;50.122;14.468;2022-12-29T01:13:42;976.56;;;6.23;76.01
69593;BME280;56796;50.122;14.468;2022-12-29T01:33:11;976.57;;;6.39;74.33
69593;BME280;56796;50.122;14.468;2022-12-29T01:52:29;976.32;;;6.47;73.35
69593;BME280;56796;50.122;14.468;2022-12-29T02:11:53;976.16;;;6.46;72.82
69593;BME280;56796;50.122;14.468;2022-12-29T02:31:20;976.2;;;6.59;71.32
69593;BME280;56796;50.122;14.468;2022-12-29T02:50:47;975.9;;;6.54;71.31
69593;BME280;56796;50.122;14.468;2022-12-29T03:10:17;975.8;;;6.7;70.34
69593;BME280;56796;50.122;14.468;2022-12-29T03:29:41;975.73;;;6.73;70.15
69593;BME280;56796;50.122;14.468;2022-12-29T03:49:05;975.84;;;6.78;70.05
69593;BME280;56796;50.122;14.468;2022-12-29T04:08:30;975.73;;;6.89;69.8
69593;BME280;56796;50.122;14.468;2022-12-29T04:27:57;975.34;;;6.93;69.98
69593;BME280;56796;50.122;14.468;2022-12-29T04:47:24;975.46;;;7.11;69.76
69593;BME280;56796;50.122;14.468;2022-12-29T05:06:49;975.54;;;7.33;69.61
69593;BME280;56796;50.122;14.468;2022-12-29T05:26:16;975.34;;;7.41;68.97
69593;BME280;56796;50.122;14.468;2022-12-29T05:45:42;975.16;;;7.35;69.1
69593;BME280;56796;50.122;14.468;2022-12-29T06:05:11;975.22;;;7.68;68.07
69593;BME280;56796;50.122;14.468;2022-12-29T06:24:36;975.31;;;7.71;68
69593;BME280;56796;50.122;14.468;2022-12-29T06:44:03;975.27;;;7.77;67.97
69593;BME280;56796;50.122;14.468;2022-12-29T07:03:28;975.37;;;7.87;67.74
69593;BME280;56796;50.122;14.468;2022-12-29T07:22:54;975.43;;;7.96;67.85
69593;BME280;56796;50.122;14.468;2022-12-29T07:42:21;975.3;;;8.13;67.17
69593;BME280;56796;50.122;14.468;2022-12-29T08:01:53;975.33;;;8.22;66.68
69593;BME280;56796;50.122;14.468;2022-12-29T08:21:12;975.46;;;8.31;66.86
69593;BME280;56796;50.122;14.468;2022-12-29T08:40:37;975.42;;;8.53;66.95
69593;BME280;56796;50.122;14.468;2022-12-29T09:00:07;975.44;;;8.74;66.89
69593;BME280;56796;50.122;14.468;2022-12-29T09:19:31;975.55;;;8.95;67.23
69593;BME280;56796;50.122;14.468;2022-12-29T09:38:59;975.49;;;9.16;67.24
69593;BME280;56796;50.122;14.468;2022-12-29T09:58:29;975.3;;;9.6;67.25
69593;BME280;56796;50.122;14.468;2022-12-29T10:17:57;974.93;;;11.19;65.07
69593;BME280;56796;50.122;14.468;2022-12-29T10:37:29;974.74;;;11.73;62.88
69593;BME280;56796;50.122;14.468;2022-12-29T10:56:56;974.41;;;12.44;60.58
69593;BME280;56796;50.122;14.468;2022-12-29T11:16:28;974.1;;;13.08;57.78
69593;BME280;56796;50.122;14.468;2022-12-29T11:35:56;973.87;;;13.19;58.2
69593;BME280;56796;50.122;14.468;2022-12-29T11:55:20;974.03;;;13.28;58.24
69593;BME280;56796;50.122;14.468;2022-12-29T12:14:51;974.1;;;13.69;57.23
69593;BME280;56796;50.122;14.468;2022-12-29T12:34:15;974;;;13.11;59.71
69593;BME280;56796;50.122;14.468;2022-12-29T12:53:48;973.82;;;12.47;62.12
69593;BME280;56796;50.122;14.468;2022-12-29T13:13:06;973.82;;;12.53;62.39
69593;BME280;56796;50.122;14.468;2022-12-29T13:32:30;973.83;;;12.74;62.71
69593;BME280;56796;50.122;14.468;2022-12-29T13:51:52;973.94;;;12.75;62.92
69593;BME280;56796;50.122;14.468;2022-12-29T14:11:20;974.06;;;12.8;62.02
69593;BME280;56796;50.122;14.468;2022-12-29T14:30:46;974.21;;;12.67;62.1
69593;BME280;56796;50.122;14.468;2022-12-29T14:50:12;974.42;;;12.41;63.15
69593;BME280;56796;50.122;14.468;2022-12-29T15:09:36;974.58;;;12.11;63.68
69593;BME280;56796;50.122;14.468;2022-12-29T15:29:01;974.56;;;11.84;64.71
69593;BME280;56796;50.122;14.468;2022-12-29T15:48:24;974.62;;;11.62;65.76
69593;BME280;56796;50.122;14.468;2022-12-29T16:07:52;974.72;;;11.31;67.09
69593;BME280;56796;50.122;14.468;2022-12-29T16:27:16;974.76;;;11.11;68.27
69593;BME280;56796;50.122;14.468;2022-12-29T17:06:08;974.87;;;10.98;69.61
69593;BME280;56796;50.122;14.468;2022-12-29T17:25:33;974.89;;;10.92;70.29
69593;BME280;56796;50.122;14.468;2022-12-29T17:45:00;974.88;;;10.75;71.11
69593;BME280;56796;50.122;14.468;2022-12-29T18:04:23;975.09;;;10.7;71.7
69593;BME280;56796;50.122;14.468;2022-12-29T18:23:49;975.22;;;10.58;72.34
69593;BME280;56796;50.122;14.468;2022-12-29T18:43:16;975.36;;;10.52;72.51
69593;BME280;56796;50.122;14.468;2022-12-29T19:02:41;975.35;;;10.27;73.69
69593;BME280;56796;50.122;14.468;2022-12-29T19:22:06;975.44;;;10.14;74.34
69593;BME280;56796;50.122;14.468;2022-12-29T19:41:31;975.44;;;9.87;73.81
69593;BME280;56796;50.122;14.468;2022-12-29T20:01:02;975.49;;;9.84;73.13
69593;BME280;56796;50.122;14.468;2022-12-29T20:20:23;975.55;;;9.75;73.01
69593;BME280;56796;50.122;14.468;2022-12-29T20:39:51;975.61;;;9.75;72.82
69593;BME280;56796;50.122;14.468;2022-12-29T20:59:15;975.5;;;9.37;78.02
69593;BME280;56796;50.122;14.468;2022-12-29T21:18:43;975.2;;;9.09;78.27
69593;BME280;56796;50.122;14.468;2022-12-29T21:38:06;975.09;;;9.29;78.45
69593;BME280;56796;50.122;14.468;2022-12-29T21:57:32;975.16;;;9.22;78.48
69593;BME280;56796;50.122;14.468;2022-12-29T22:16:57;975.36;;;9.12;78.56
69593;BME280;56796;50.122;14.468;2022-12-29T22:36:25;975.37;;;8.93;79.41
69593;BME280;56796;50.122;14.468;2022-12-29T23:15:17;975.49;;;9.14;79.99
69593;BME280;56796;50.122;14.468;2022-12-29T23:34:41;975.58;;;9.24;80.9
69593;BME280;56796;50.122;14.468;2022-12-29T23:54:09;975.78;;;9.28;83.52
